FFT1357 KLAS-KONT
Flight info
| Callsign | FFT1357 |
|---|---|
| Flight time | 0h 32m |
| Altitude | 20000 |
| Route | RADYR2 SLVRR FEYLA JCKIE2 |
| Aircraft | A321/M-SDE3FGHIRWY/LB1 |
Departure
| Time | 2026-05-07 17:26 |
|---|---|
| Airport | Harry Reid International Airport (KLAS) |
Arrival
| Time | 2026-05-07 17:59 |
|---|---|
| Airport | Ontario International Airport (KONT) |
| Time | Latitude | Longitude | Altitude | Speed | Heading |
|---|---|---|---|---|---|
| 2026-05-07 16:54 | 36.08078 | -115.13479 | 2091 ft | 0 kts | 242° |
| 2026-05-07 17:15 | 36.08089 | -115.13456 | 2091 ft | 4 kts | 233° |
| 2026-05-07 17:15 | 36.08107 | -115.13432 | 2090 ft | 4 kts | 211° |
| 2026-05-07 17:16 | 36.08129 | -115.13424 | 2090 ft | 4 kts | 158° |
| 2026-05-07 17:16 | 36.08140 | -115.13432 | 2090 ft | 1 kts | 135° |
| 2026-05-07 17:16 | 36.08140 | -115.13433 | 2090 ft | 0 kts | 135° |
| 2026-05-07 17:21 | 36.08136 | -115.13426 | 2090 ft | 6 kts | 133° |
| 2026-05-07 17:21 | 36.08085 | -115.13350 | 2089 ft | 13 kts | 130° |
| 2026-05-07 17:21 | 36.08011 | -115.13292 | 2088 ft | 13 kts | 171° |
| 2026-05-07 17:22 | 36.07929 | -115.13291 | 2088 ft | 11 kts | 180° |
| 2026-05-07 17:22 | 36.07833 | -115.13291 | 2088 ft | 16 kts | 180° |
| 2026-05-07 17:22 | 36.07755 | -115.13229 | 2086 ft | 15 kts | 97° |
| 2026-05-07 17:22 | 36.07755 | -115.13091 | 2081 ft | 17 kts | 90° |
| 2026-05-07 17:23 | 36.07755 | -115.12931 | 2075 ft | 20 kts | 90° |
| 2026-05-07 17:23 | 36.07755 | -115.12747 | 2067 ft | 23 kts | 90° |
| 2026-05-07 17:23 | 36.07755 | -115.12544 | 2060 ft | 23 kts | 90° |
| 2026-05-07 17:23 | 36.07756 | -115.12396 | 2056 ft | 15 kts | 90° |
| 2026-05-07 17:24 | 36.07755 | -115.12271 | 2052 ft | 13 kts | 90° |
| 2026-05-07 17:24 | 36.07756 | -115.12186 | 2050 ft | 8 kts | 92° |
| 2026-05-07 17:24 | 36.07732 | -115.12134 | 2051 ft | 7 kts | 146° |
| 2026-05-07 17:24 | 36.07681 | -115.12125 | 2048 ft | 7 kts | 178° |
| 2026-05-07 17:25 | 36.07645 | -115.12166 | 2049 ft | 9 kts | 259° |
| 2026-05-07 17:25 | 36.07643 | -115.12207 | 2050 ft | 2 kts | 269° |
| 2026-05-07 17:25 | 36.07643 | -115.12216 | 2050 ft | 3 kts | 269° |
| 2026-05-07 17:25 | 36.07642 | -115.12494 | 2058 ft | 67 kts | 270° |
| 2026-05-07 17:26 | 36.07643 | -115.13313 | 2087 ft | 122 kts | 270° |
| 2026-05-07 17:26 | 36.07641 | -115.14557 | 2101 ft | 166 kts | 270° |
| 2026-05-07 17:26 | 36.07644 | -115.16107 | 2296 ft | 186 kts | 271° |
| 2026-05-07 17:26 | 36.07643 | -115.17700 | 2906 ft | 185 kts | 271° |
| 2026-05-07 17:27 | 36.07639 | -115.19296 | 3522 ft | 186 kts | 271° |
| 2026-05-07 17:27 | 36.07606 | -115.20915 | 3898 ft | 196 kts | 263° |
| 2026-05-07 17:27 | 36.07363 | -115.22637 | 4038 ft | 212 kts | 261° |
| 2026-05-07 17:27 | 36.07027 | -115.24477 | 4170 ft | 227 kts | 249° |
| 2026-05-07 17:28 | 36.06058 | -115.26101 | 4283 ft | 249 kts | 217° |
| 2026-05-07 17:28 | 36.04440 | -115.27071 | 4472 ft | 271 kts | 200° |
| 2026-05-07 17:28 | 36.02642 | -115.27883 | 5015 ft | 278 kts | 200° |
| 2026-05-07 17:28 | 36.00810 | -115.28701 | 5707 ft | 281 kts | 200° |
| 2026-05-07 17:29 | 35.98947 | -115.29474 | 6397 ft | 284 kts | 192° |
| 2026-05-07 17:29 | 35.96991 | -115.29950 | 7036 ft | 288 kts | 191° |
| 2026-05-07 17:29 | 35.95009 | -115.30430 | 7681 ft | 292 kts | 191° |
| 2026-05-07 17:29 | 35.93011 | -115.30917 | 8334 ft | 295 kts | 191° |
| 2026-05-07 17:30 | 35.90991 | -115.31411 | 8935 ft | 297 kts | 191° |
| 2026-05-07 17:30 | 35.88952 | -115.31910 | 9512 ft | 300 kts | 191° |
| 2026-05-07 17:30 | 35.86919 | -115.32405 | 10087 ft | 304 kts | 191° |
| 2026-05-07 17:30 | 35.84796 | -115.32927 | 10353 ft | 321 kts | 191° |
| 2026-05-07 17:31 | 35.82540 | -115.33486 | 10486 ft | 341 kts | 191° |
| 2026-05-07 17:31 | 35.80157 | -115.34072 | 10726 ft | 355 kts | 191° |
| 2026-05-07 17:31 | 35.77712 | -115.34673 | 11265 ft | 360 kts | 191° |
| 2026-05-07 17:31 | 35.75238 | -115.35281 | 11862 ft | 365 kts | 191° |
| 2026-05-07 17:32 | 35.72733 | -115.35895 | 12469 ft | 369 kts | 191° |
| 2026-05-07 17:32 | 35.70205 | -115.36513 | 13052 ft | 373 kts | 191° |
| 2026-05-07 17:32 | 35.67651 | -115.37136 | 13656 ft | 376 kts | 191° |
| 2026-05-07 17:32 | 35.65947 | -115.37550 | 14045 ft | 378 kts | 191° |
| 2026-05-07 17:33 | 35.62545 | -115.38743 | 14790 ft | 384 kts | 204° |
| 2026-05-07 17:33 | 35.60201 | -115.40339 | 15344 ft | 387 kts | 215° |
| 2026-05-07 17:33 | 35.58147 | -115.42493 | 15879 ft | 390 kts | 227° |
| 2026-05-07 17:33 | 35.56322 | -115.44983 | 16420 ft | 394 kts | 229° |
| 2026-05-07 17:34 | 35.54483 | -115.47494 | 16934 ft | 397 kts | 229° |
| 2026-05-07 17:34 | 35.52619 | -115.50017 | 17446 ft | 401 kts | 228° |
| 2026-05-07 17:34 | 35.50733 | -115.52552 | 17958 ft | 403 kts | 228° |
| 2026-05-07 17:34 | 35.48830 | -115.55108 | 18431 ft | 407 kts | 228° |
| 2026-05-07 17:35 | 35.46911 | -115.57683 | 18898 ft | 411 kts | 228° |
| 2026-05-07 17:35 | 35.44976 | -115.60278 | 19359 ft | 414 kts | 228° |
| 2026-05-07 17:35 | 35.43029 | -115.62890 | 19819 ft | 416 kts | 229° |
| 2026-05-07 17:35 | 35.41070 | -115.65526 | 20046 ft | 419 kts | 229° |
| 2026-05-07 17:36 | 35.39123 | -115.68151 | 20091 ft | 414 kts | 229° |
| 2026-05-07 17:36 | 35.37191 | -115.70750 | 20087 ft | 412 kts | 229° |
| 2026-05-07 17:36 | 35.35260 | -115.73343 | 20095 ft | 412 kts | 229° |
| 2026-05-07 17:36 | 35.33328 | -115.75933 | 20090 ft | 412 kts | 229° |
| 2026-05-07 17:37 | 35.31395 | -115.78516 | 20082 ft | 412 kts | 228° |
| 2026-05-07 17:37 | 35.29459 | -115.81098 | 20082 ft | 412 kts | 228° |
| 2026-05-07 17:37 | 35.28176 | -115.82808 | 20091 ft | 411 kts | 228° |
| 2026-05-07 17:37 | 35.26239 | -115.85384 | 20095 ft | 411 kts | 228° |
| 2026-05-07 17:38 | 35.24299 | -115.87960 | 20083 ft | 412 kts | 228° |
| 2026-05-07 17:38 | 35.22361 | -115.90543 | 20082 ft | 412 kts | 229° |
| 2026-05-07 17:38 | 35.20423 | -115.93128 | 20082 ft | 413 kts | 228° |
| 2026-05-07 17:38 | 35.18481 | -115.95713 | 20083 ft | 412 kts | 228° |
| 2026-05-07 17:39 | 35.16647 | -115.98152 | 20083 ft | 413 kts | 228° |
| 2026-05-07 17:39 | 35.14703 | -116.00735 | 20083 ft | 413 kts | 228° |
| 2026-05-07 17:39 | 35.12760 | -116.03312 | 20087 ft | 412 kts | 228° |
| 2026-05-07 17:39 | 35.10818 | -116.05884 | 20108 ft | 412 kts | 228° |
| 2026-05-07 17:40 | 35.08856 | -116.08464 | 20084 ft | 414 kts | 228° |
| 2026-05-07 17:40 | 35.06900 | -116.11037 | 20082 ft | 413 kts | 228° |
| 2026-05-07 17:40 | 35.04948 | -116.13614 | 20083 ft | 413 kts | 228° |
| 2026-05-07 17:40 | 35.02997 | -116.16191 | 20084 ft | 413 kts | 228° |
| 2026-05-07 17:41 | 35.01045 | -116.18768 | 20082 ft | 413 kts | 228° |
| 2026-05-07 17:41 | 34.99070 | -116.21313 | 20103 ft | 414 kts | 226° |
| 2026-05-07 17:41 | 34.97008 | -116.23764 | 20105 ft | 414 kts | 224° |
| 2026-05-07 17:41 | 34.94891 | -116.26135 | 20100 ft | 414 kts | 223° |
| 2026-05-07 17:42 | 34.92742 | -116.28475 | 20097 ft | 414 kts | 222° |
| 2026-05-07 17:42 | 34.90588 | -116.30810 | 20091 ft | 414 kts | 222° |
| 2026-05-07 17:42 | 34.88445 | -116.33156 | 20094 ft | 415 kts | 223° |
| 2026-05-07 17:42 | 34.86330 | -116.35543 | 20108 ft | 414 kts | 224° |
| 2026-05-07 17:43 | 34.84258 | -116.37986 | 20096 ft | 414 kts | 225° |
| 2026-05-07 17:43 | 34.82214 | -116.40460 | 20106 ft | 414 kts | 226° |
| 2026-05-07 17:43 | 34.80190 | -116.42954 | 20123 ft | 413 kts | 229° |
| 2026-05-07 17:43 | 34.78426 | -116.45703 | 20155 ft | 412 kts | 236° |
| 2026-05-07 17:44 | 34.76774 | -116.48555 | 20149 ft | 413 kts | 236° |
| 2026-05-07 17:44 | 34.75101 | -116.51403 | 20145 ft | 414 kts | 236° |
| 2026-05-07 17:44 | 34.73428 | -116.54224 | 19993 ft | 407 kts | 236° |
| 2026-05-07 17:44 | 34.71790 | -116.56968 | 19750 ft | 397 kts | 236° |
| 2026-05-07 17:45 | 34.70173 | -116.59670 | 19313 ft | 394 kts | 235° |
| 2026-05-07 17:45 | 34.68567 | -116.62354 | 18882 ft | 391 kts | 235° |
| 2026-05-07 17:45 | 34.66972 | -116.65001 | 18545 ft | 385 kts | 235° |
| 2026-05-07 17:45 | 34.65398 | -116.67618 | 18053 ft | 384 kts | 235° |
| 2026-05-07 17:46 | 34.63856 | -116.70207 | 17572 ft | 383 kts | 235° |
| 2026-05-07 17:46 | 34.62307 | -116.72822 | 17122 ft | 380 kts | 235° |
| 2026-05-07 17:46 | 34.60769 | -116.75416 | 16713 ft | 377 kts | 236° |
| 2026-05-07 17:46 | 34.59411 | -116.78077 | 15997 ft | 367 kts | 243° |
| 2026-05-07 17:47 | 34.58196 | -116.80770 | 15368 ft | 360 kts | 243° |
| 2026-05-07 17:47 | 34.56998 | -116.83435 | 14997 ft | 359 kts | 243° |
| 2026-05-07 17:47 | 34.55806 | -116.86086 | 14593 ft | 356 kts | 243° |
| 2026-05-07 17:47 | 34.54602 | -116.88705 | 14191 ft | 354 kts | 238° |
| 2026-05-07 17:48 | 34.53107 | -116.91080 | 13766 ft | 354 kts | 230° |
| 2026-05-07 17:48 | 34.51503 | -116.93335 | 13341 ft | 352 kts | 230° |
| 2026-05-07 17:48 | 34.49900 | -116.95575 | 12933 ft | 350 kts | 229° |
| 2026-05-07 17:48 | 34.48311 | -116.97794 | 12525 ft | 347 kts | 229° |
| 2026-05-07 17:49 | 34.46732 | -117.00003 | 12090 ft | 346 kts | 230° |
| 2026-05-07 17:49 | 34.45057 | -117.02064 | 11694 ft | 343 kts | 219° |
| 2026-05-07 17:49 | 34.43070 | -117.03633 | 11275 ft | 340 kts | 207° |
| 2026-05-07 17:49 | 34.40973 | -117.04935 | 10871 ft | 337 kts | 206° |
| 2026-05-07 17:50 | 34.38892 | -117.06228 | 10527 ft | 333 kts | 207° |
| 2026-05-07 17:50 | 34.36865 | -117.07491 | 10398 ft | 322 kts | 207° |
| 2026-05-07 17:50 | 34.34906 | -117.08717 | 10278 ft | 311 kts | 207° |
| 2026-05-07 17:50 | 34.33024 | -117.09902 | 10160 ft | 300 kts | 207° |
| 2026-05-07 17:51 | 34.31208 | -117.11098 | 9883 ft | 294 kts | 210° |
| 2026-05-07 17:51 | 34.29460 | -117.12355 | 9627 ft | 291 kts | 211° |
| 2026-05-07 17:51 | 34.27738 | -117.13644 | 9345 ft | 290 kts | 212° |
| 2026-05-07 17:51 | 34.26030 | -117.14931 | 9058 ft | 289 kts | 212° |
| 2026-05-07 17:52 | 34.24335 | -117.16203 | 8757 ft | 286 kts | 212° |
| 2026-05-07 17:52 | 34.22641 | -117.17462 | 8458 ft | 285 kts | 212° |
| 2026-05-07 17:52 | 34.20961 | -117.18699 | 8166 ft | 282 kts | 212° |
| 2026-05-07 17:52 | 34.19415 | -117.20149 | 7858 ft | 281 kts | 223° |
| 2026-05-07 17:53 | 34.17972 | -117.21741 | 7534 ft | 281 kts | 223° |
| 2026-05-07 17:53 | 34.16536 | -117.23324 | 7215 ft | 279 kts | 223° |
| 2026-05-07 17:53 | 34.15140 | -117.24937 | 6866 ft | 277 kts | 225° |
| 2026-05-07 17:53 | 34.13779 | -117.26578 | 6509 ft | 275 kts | 226° |
| 2026-05-07 17:54 | 34.12435 | -117.28221 | 6144 ft | 275 kts | 226° |
| 2026-05-07 17:54 | 34.11089 | -117.29865 | 5649 ft | 279 kts | 226° |
| 2026-05-07 17:54 | 34.09731 | -117.31513 | 5347 ft | 267 kts | 225° |
| 2026-05-07 17:54 | 34.08446 | -117.33065 | 4819 ft | 259 kts | 225° |
| 2026-05-07 17:55 | 34.07213 | -117.34553 | 4528 ft | 240 kts | 225° |
| 2026-05-07 17:55 | 34.06199 | -117.36081 | 4358 ft | 231 kts | 243° |
| 2026-05-07 17:55 | 34.05688 | -117.37903 | 4202 ft | 231 kts | 262° |
| 2026-05-07 17:55 | 34.05648 | -117.39831 | 3879 ft | 229 kts | 271° |
| 2026-05-07 17:56 | 34.05665 | -117.41729 | 3576 ft | 224 kts | 271° |
| 2026-05-07 17:56 | 34.05675 | -117.43566 | 3314 ft | 213 kts | 270° |
| 2026-05-07 17:56 | 34.05680 | -117.45308 | 3036 ft | 203 kts | 270° |
| 2026-05-07 17:56 | 34.05686 | -117.46971 | 2790 ft | 195 kts | 270° |
| 2026-05-07 17:57 | 34.05689 | -117.48585 | 2527 ft | 189 kts | 270° |
| 2026-05-07 17:57 | 34.05689 | -117.49593 | 2395 ft | 174 kts | 270° |
| 2026-05-07 17:57 | 34.05687 | -117.51441 | 2067 ft | 159 kts | 270° |
| 2026-05-07 17:57 | 34.05687 | -117.52754 | 1859 ft | 155 kts | 270° |
| 2026-05-07 17:58 | 34.05684 | -117.54044 | 1665 ft | 153 kts | 269° |
| 2026-05-07 17:58 | 34.05683 | -117.55322 | 1458 ft | 152 kts | 270° |
| 2026-05-07 17:58 | 34.05685 | -117.56590 | 1265 ft | 151 kts | 270° |
| 2026-05-07 17:58 | 34.05685 | -117.57838 | 1058 ft | 150 kts | 270° |
| 2026-05-07 17:59 | 34.05688 | -117.59071 | 948 ft | 138 kts | 270° |
| 2026-05-07 17:59 | 34.05689 | -117.60042 | 945 ft | 88 kts | 270° |
| 2026-05-07 17:59 | 34.05690 | -117.60578 | 946 ft | 35 kts | 271° |
| 2026-05-07 17:59 | 34.05729 | -117.60763 | 945 ft | 16 kts | 313° |
| 2026-05-07 18:00 | 34.05798 | -117.60732 | 946 ft | 12 kts | 81° |
| 2026-05-07 18:00 | 34.05798 | -117.60632 | 946 ft | 12 kts | 90° |
| 2026-05-07 18:00 | 34.05798 | -117.60524 | 946 ft | 15 kts | 90° |
| 2026-05-07 18:00 | 34.05799 | -117.60402 | 946 ft | 15 kts | 90° |
| 2026-05-07 18:01 | 34.05798 | -117.60268 | 946 ft | 16 kts | 90° |
| 2026-05-07 18:01 | 34.05798 | -117.60141 | 946 ft | 15 kts | 90° |
| 2026-05-07 18:01 | 34.05798 | -117.60018 | 945 ft | 15 kts | 90° |
| 2026-05-07 18:01 | 34.05798 | -117.59897 | 944 ft | 14 kts | 90° |
| 2026-05-07 18:02 | 34.05799 | -117.59670 | 944 ft | 15 kts | 90° |
| 2026-05-07 18:02 | 34.05849 | -117.59580 | 944 ft | 16 kts | 4° |
| 2026-05-07 18:02 | 34.05933 | -117.59582 | 944 ft | 8 kts | 0° |
| 2026-05-07 18:03 | 34.05965 | -117.59582 | 944 ft | 3 kts | 359° |
| 2026-05-07 18:03 | 34.05978 | -117.59582 | 944 ft | 1 kts | 360° |
| 2026-05-07 18:03 | 34.05982 | -117.59582 | 944 ft | 0 kts | 360° |
| 2026-05-07 18:03 | 34.05984 | -117.59582 | 944 ft | 1 kts | 0° |